PORTS® Data Listing: 9076033 Little Rapids, MI

CO-OPS RAW PORTS DATA

************************      PRELIMINARY DATA      ************************** 

     THIS RAW DATA HAS NOT BEEN SUBJECT TO THE NATIONAL OCEAN SERVICE'S        
     QUALITY CONTROL OR QUALITY ASSURANCE PROCEDURES AND DOES NOT MEET         
     THE CRITERIA AND STANDARDS OF OFFICIAL NATIONAL OCEAN SERVICE             
     DATA.  IT IS RELEASED FOR LIMITED PUBLIC USE AS PRELIMINARY DATA TO       
     BE USED ONLY WITH APPROPRIATE CAUTION.                                    

************************      PRELIMINARY DATA      ************************** 


       CD   -   Calendar date
       T    -   Time
       TZ   -   Timezone
       SW   -   Observed secondary water level (inches IGLD 1985)
       PW   -   Observed primary water level (inches IGLD 1985)
       WS   -   Wind speed (knots)
       WD   -   Wind direction (degrees true)
       WG   -   Wind gust (knots)
       AT   -   Air temperature (degrees farenheit)
       WT   -   Water temperature (degrees farenheit)
       AP   -   Air pressure (millibars)
       SA   -   Salinty (PSU - Practical Salinity Units)
       SG   -   Specific gravity
       RH   -   Relative humidity
       AG   -   Air gap (feet)
       VI   -   Visibility (nautical miles)

       ** NOTE **
       A variable that has its data fields filled with "9"s, indicates that
       data was not collected for that sample period.
       **********


STATION NAME: Little Rapids (9076033)
****************************************************************************************************
    CD       T    TZ    SW     PW    WS   WD   WG    AT    WT    AP    SA    SG     RH    AG   VI
****************************************************************************************************
2019/12/05 20:12 EST   45.08  45.12    2  181    3  24.4 -99.9 1015.4 -9.9 -9.999  92.3 -99.99 -9.99
2019/12/05 20:18 EST   45.12  45.16    3  153    4  24.6 -99.9 1015.3 -9.9 -9.999  94.5 -99.99 -9.99
2019/12/05 20:24 EST   45.08  45.08    4  127    4  24.6 -99.9 1015.3 -9.9 -9.999  95.4 -99.99 -9.99
2019/12/05 20:30 EST   45.00  45.04    3  131    4  24.8 -99.9 1015.3 -9.9 -9.999  94.6 -99.99 -9.99
2019/12/05 20:36 EST   44.92  44.92    3  129    4  24.8 -99.9 1015.3 -9.9 -9.999  93.1 -99.99 -9.99
2019/12/05 20:42 EST   44.88  44.92    3  125    3  25.0 -99.9 1015.3 -9.9 -9.999  93.9 -99.99 -9.99
2019/12/05 20:48 EST   44.88  44.92    3  134    4  25.0 -99.9 1015.2 -9.9 -9.999  94.4 -99.99 -9.99
2019/12/05 20:54 EST   44.84  44.84    4  137    5  25.0 -99.9 1015.3 -9.9 -9.999  93.7 -99.99 -9.99
2019/12/05 21:00 EST   44.76  44.80    4  121    5  25.2 -99.9 1015.2 -9.9 -9.999  94.5 -99.99 -9.99
2019/12/05 21:06 EST   44.76  44.76    3  110    4  25.2 -99.9 1015.3 -9.9 -9.999  94.4 -99.99 -9.99
2019/12/05 21:12 EST   44.76  44.76    4  112    5  25.0 -99.9 1015.3 -9.9 -9.999  92.6 -99.99 -9.99
2019/12/05 21:18 EST   44.72  44.76    4  114    5  25.0 -99.9 1015.3 -9.9 -9.999  93.7 -99.99 -9.99
2019/12/05 21:24 EST   44.72  44.72    4  110    5  25.0 -99.9 1015.2 -9.9 -9.999  93.4 -99.99 -9.99
2019/12/05 21:30 EST   44.69  44.72    5  110    6  25.0 -99.9 1015.2 -9.9 -9.999  92.8 -99.99 -9.99
2019/12/05 21:36 EST   44.65  44.69    4  110    5  25.3 -99.9 1015.2 -9.9 -9.999  94.3 -99.99 -9.99
2019/12/05 21:42 EST   44.65  44.69    5  112    6  25.5 -99.9 1015.1 -9.9 -9.999  92.9 -99.99 -9.99
2019/12/05 21:48 EST   44.76  44.80    5  103    7  25.3 -99.9 1015.0 -9.9 -9.999  89.0 -99.99 -9.99
2019/12/05 21:54 EST   44.65  44.69    5   92    7  25.0 -99.9 1015.1 -9.9 -9.999  88.7 -99.99 -9.99
2019/12/05 22:00 EST   44.61  44.61    6   88    8  25.0 -99.9 1015.0 -9.9 -9.999  91.1 -99.99 -9.99
2019/12/05 22:06 EST   44.61  44.65    6   94    7  24.8 -99.9 1015.0 -9.9 -9.999  90.1 -99.99 -9.99
2019/12/05 22:12 EST   44.84  44.88    6   94    7  25.0 -99.9 1014.9 -9.9 -9.999  93.4 -99.99 -9.99
2019/12/05 22:18 EST   44.72  44.72    6   89    8  24.8 -99.9 1015.2 -9.9 -9.999  93.4 -99.99 -9.99
2019/12/05 22:24 EST   44.53  44.53    5  100    7  25.0 -99.9 1015.4 -9.9 -9.999  93.7 -99.99 -9.99
2019/12/05 22:30 EST   44.53  44.53    6  103    7  24.8 -99.9 1015.4 -9.9 -9.999  92.6 -99.99 -9.99
2019/12/05 22:36 EST   44.57  44.61    6  106    8  24.8 -99.9 1015.4 -9.9 -9.999  94.0 -99.99 -9.99
2019/12/05 22:42 EST   44.61  44.61    6  105    8  24.8 -99.9 1015.4 -9.9 -9.999  94.2 -99.99 -9.99
2019/12/05 22:48 EST   44.57  44.61    6  113    8  24.6 -99.9 1015.4 -9.9 -9.999  93.4 -99.99 -9.99
2019/12/05 22:54 EST   44.57  44.61    6  104    8  24.6 -99.9 1015.5 -9.9 -9.999  94.0 -99.99 -9.99
2019/12/05 23:00 EST   44.53  44.57    5  109    6  24.6 -99.9 1015.6 -9.9 -9.999  94.0 -99.99 -9.99
2019/12/05 23:06 EST   44.37  44.41    6  109    7  24.4 -99.9 1015.5 -9.9 -9.999  94.3 -99.99 -9.99
2019/12/05 23:12 EST   44.45  44.49    6  106    7  24.4 -99.9 1015.6 -9.9 -9.999  94.0 -99.99 -9.99
2019/12/05 23:18 EST   44.72  44.72    5   86    6  24.4 -99.9 1015.8 -9.9 -9.999  93.8 -99.99 -9.99
2019/12/05 23:24 EST   44.69  44.72    5   78    7  24.4 -99.9 1015.8 -9.9 -9.999  93.2 -99.99 -9.99
2019/12/05 23:30 EST   44.65  44.69    5   87    7  24.6 -99.9 1015.8 -9.9 -9.999  94.4 -99.99 -9.99
2019/12/05 23:36 EST   44.69  44.72    6   96    7  24.4 -99.9 1015.9 -9.9 -9.999  92.6 -99.99 -9.99
2019/12/05 23:42 EST   44.80  44.84    6   86    7  24.3 -99.9 1015.8 -9.9 -9.999  93.7 -99.99 -9.99
2019/12/05 23:48 EST   45.08  45.12    5   95    7  24.4 -99.9 1015.8 -9.9 -9.999  92.9 -99.99 -9.99
2019/12/05 23:54 EST   45.12  45.16    5   94    6  24.3 -99.9 1015.8 -9.9 -9.999  93.8 -99.99 -9.99
2019/12/06 00:00 EST   44.76  44.80    6   83    7  24.3 -99.9 1015.7 -9.9 -9.999  93.7 -99.99 -9.99
2019/12/06 00:06 EST   45.16  45.16    6   85    8  24.3 -99.9 1015.6 -9.9 -9.999  93.6 -99.99 -9.99
2019/12/06 00:12 EST   45.71  45.71    5  105    7  24.4 -99.9 1015.5 -9.9 -9.999  94.4 -99.99 -9.99
2019/12/06 00:18 EST   44.09  44.17    5   99    7  24.4 -99.9 1015.5 -9.9 -9.999  94.3 -99.99 -9.99
2019/12/06 00:24 EST   45.39  45.39    6   89    7  24.3 -99.9 1015.5 -9.9 -9.999  92.4 -99.99 -9.99
2019/12/06 00:30 EST   44.76  44.80    5  107    7  24.3 -99.9 1015.4 -9.9 -9.999  93.4 -99.99 -9.99
2019/12/06 00:36 EST   45.20  45.24    6   98    8  24.3 -99.9 1015.4 -9.9 -9.999  89.4 -99.99 -9.99
2019/12/06 00:42 EST   44.76  44.80    6   98    8  24.4 -99.9 1015.4 -9.9 -9.999  93.1 -99.99 -9.99
2019/12/06 00:48 EST   44.84  44.88    6   91    8  24.3 -99.9 1015.3 -9.9 -9.999  92.5 -99.99 -9.99
2019/12/06 00:54 EST   44.69  44.72    6   93    8  24.1 -99.9 1015.2 -9.9 -9.999  92.5 -99.99 -9.99
2019/12/06 01:00 EST   44.72  44.72    6   83    7  24.4 -99.9 1015.1 -9.9 -9.999  92.5 -99.99 -9.99
2019/12/06 01:06 EST   44.76  44.80    6   97    8  24.3 -99.9 1015.2 -9.9 -9.999  92.2 -99.99 -9.99
2019/12/06 01:12 EST   44.96  44.96    6   96    8  24.1 -99.9 1015.1 -9.9 -9.999  91.7 -99.99 -9.99
2019/12/06 01:18 EST   45.35  45.39    7   95   10  24.1 -99.9 1015.0 -9.9 -9.999  90.7 -99.99 -9.99
2019/12/06 01:24 EST   45.28  45.31    7  106    9  24.1 -99.9 1015.0 -9.9 -9.999  90.6 -99.99 -9.99
2019/12/06 01:30 EST   45.16  45.20    6  108    7  24.1 -99.9 1015.0 -9.9 -9.999  90.8 -99.99 -9.99
2019/12/06 01:36 EST   45.28  45.28    5  102    6  24.1 -99.9 1014.9 -9.9 -9.999  92.2 -99.99 -9.99
2019/12/06 01:42 EST   44.09  44.09    5  101    7  24.1 -99.9 1014.8 -9.9 -9.999  91.8 -99.99 -9.99
2019/12/06 01:48 EST   44.80  44.84    4   88    7  23.9 -99.9 1014.7 -9.9 -9.999  91.8 -99.99 -9.99
2019/12/06 01:54 EST   44.92  44.96    6   90    8  24.1 -99.9 1014.7 -9.9 -9.999  91.3 -99.99 -9.99
2019/12/06 02:00 EST   45.00  45.00    6   97    8  23.9 -99.9 1014.7 -9.9 -9.999  91.2 -99.99 -9.99
2019/12/06 02:06 EST   44.88  44.92    7   89    8  24.1 -99.9 1014.6 -9.9 -9.999  90.6 -99.99 -9.99
2019/12/06 02:12 EST   45.04  45.12    6   78    8  24.4 -99.9 1014.5 -9.9 -9.999  92.7 -99.99 -9.99
2019/12/06 02:18 EST   44.88  44.92    7   62    9  24.1 -99.9 1014.6 -9.9 -9.999  88.7 -99.99 -9.99
2019/12/06 02:24 EST   44.92  44.96    7   67    9  23.9 -99.9 1014.6 -9.9 -9.999  90.3 -99.99 -9.99
2019/12/06 02:30 EST   44.96  44.96    5   70    7  23.7 -99.9 1014.6 -9.9 -9.999  89.8 -99.99 -9.99
2019/12/06 02:36 EST   45.08  45.12    6   62    7  23.7 -99.9 1014.7 -9.9 -9.999  90.4 -99.99 -9.99
2019/12/06 02:42 EST   45.00  45.00    6   68    7  24.1 -99.9 1014.7 -9.9 -9.999  92.0 -99.99 -9.99
2019/12/06 02:48 EST   45.08  45.12    4   83    7  24.1 -99.9 1014.7 -9.9 -9.999  91.7 -99.99 -9.99
2019/12/06 02:54 EST   45.04  45.04    4   79    6  23.9 -99.9 1014.7 -9.9 -9.999  91.3 -99.99 -9.99
2019/12/06 03:00 EST   45.00  45.04    4   83    6  23.7 -99.9 1014.8 -9.9 -9.999  90.6 -99.99 -9.99
2019/12/06 03:06 EST   44.96  45.00    4   86    5  23.9 -99.9 1014.7 -9.9 -9.999  91.4 -99.99 -9.99
2019/12/06 03:12 EST   45.12  45.16    4   92    4  23.9 -99.9 1014.8 -9.9 -9.999  91.3 -99.99 -9.99
2019/12/06 03:18 EST   45.24  45.24    4   98    5  23.7 -99.9 1014.8 -9.9 -9.999  91.0 -99.99 -9.99
2019/12/06 03:24 EST   45.24  45.24    3   61    5  23.7 -99.9 1014.8 -9.9 -9.999  92.0 -99.99 -9.99
2019/12/06 03:30 EST   45.08  45.12    3  116    4  23.5 -99.9 1014.9 -9.9 -9.999  89.9 -99.99 -9.99
2019/12/06 03:36 EST   44.96  45.00    3  139    4  22.5 -99.9 1015.0 -9.9 -9.999  89.3 -99.99 -9.99
2019/12/06 03:42 EST   45.00  45.04    2  197    4  21.6 -99.9 1015.1 -9.9 -9.999  90.9 -99.99 -9.99
2019/12/06 03:48 EST   44.96  45.00    2  186    4  21.7 -99.9 1015.1 -9.9 -9.999  91.1 -99.99 -9.99
2019/12/06 03:54 EST   44.96  44.96    2  204    3  21.4 -99.9 1015.1 -9.9 -9.999  92.3 -99.99 -9.99
2019/12/06 04:00 EST   44.88  44.92    2  215    3  21.4 -99.9 1015.1 -9.9 -9.999  93.2 -99.99 -9.99
2019/12/06 04:06 EST   44.84  44.88    2  215    3  21.4 -99.9 1015.1 -9.9 -9.999  93.1 -99.99 -9.99
2019/12/06 04:12 EST   44.80  44.80    1  229    2  21.9 -99.9 1015.2 -9.9 -9.999  92.1 -99.99 -9.99
2019/12/06 04:18 EST   44.80  44.84    1  237    2  22.1 -99.9 1015.2 -9.9 -9.999  90.4 -99.99 -9.99
2019/12/06 04:24 EST   44.84  44.88    1  268    2  21.2 -99.9 1015.2 -9.9 -9.999  91.0 -99.99 -9.99
2019/12/06 04:30 EST   44.84  44.88    2  275    2  21.6 -99.9 1015.2 -9.9 -9.999  92.6 -99.99 -9.99
2019/12/06 04:36 EST   44.84  44.88    3  264    3  21.4 -99.9 1015.4 -9.9 -9.999  91.7 -99.99 -9.99
2019/12/06 04:42 EST   44.84  44.88    2  253    3  21.7 -99.9 1015.3 -9.9 -9.999  92.8 -99.99 -9.99
2019/12/06 04:48 EST   44.84  44.88    2  257    3  21.6 -99.9 1015.4 -9.9 -9.999  91.6 -99.99 -9.99
2019/12/06 04:54 EST   45.24  45.28    3  250    3  21.2 -99.9 1015.5 -9.9 -9.999  92.4 -99.99 -9.99
2019/12/06 05:00 EST   45.31  45.35    3  245    4  21.4 -99.9 1015.5 -9.9 -9.999  93.0 -99.99 -9.99
2019/12/06 05:06 EST   45.16  45.16    3  247    3  21.4 -99.9 1015.5 -9.9 -9.999  92.4 -99.99 -9.99
2019/12/06 05:12 EST   45.08  45.12    3  257    3  21.7 -99.9 1015.5 -9.9 -9.999  92.0 -99.99 -9.99
2019/12/06 05:18 EST   44.88  44.88    2  262    2  21.7 -99.9 1015.5 -9.9 -9.999  92.3 -99.99 -9.99
2019/12/06 05:24 EST   45.04  45.04    2  219    2  21.7 -99.9 1015.4 -9.9 -9.999  91.4 -99.99 -9.99
2019/12/06 05:30 EST   44.65  44.65    2  171    2  22.1 -99.9 1015.4 -9.9 -9.999  92.6 -99.99 -9.99
2019/12/06 05:36 EST   45.16  45.16    2  193    2  22.3 -99.9 1015.4 -9.9 -9.999  91.8 -99.99 -9.99
2019/12/06 05:42 EST   44.76  44.80    2  185    2  22.3 -99.9 1015.3 -9.9 -9.999  92.5 -99.99 -9.99
2019/12/06 05:48 EST   44.88  44.92    2  197    4  22.5 -99.9 1015.4 -9.9 -9.999  92.1 -99.99 -9.99
2019/12/06 05:54 EST   44.65  44.69    2  177    2  22.3 -99.9 1015.3 -9.9 -9.999  92.5 -99.99 -9.99
2019/12/06 06:00 EST   45.08  45.12    3  143    5  23.0 -99.9 1015.2 -9.9 -9.999  92.8 -99.99 -9.99
2019/12/06 06:06 EST   45.24  45.28    4  120    5  23.4 -99.9 1015.2 -9.9 -9.999  92.2 -99.99 -9.99
2019/12/06 06:12 EST   45.28  45.31    4  124    5  23.4 -99.9 1015.2 -9.9 -9.999  91.9 -99.99 -9.99
2019/12/06 06:18 EST   45.08  45.12    4  120    5  23.4 -99.9 1015.1 -9.9 -9.999  93.4 -99.99 -9.99
2019/12/06 06:24 EST   45.00  45.04    4  128    5  23.2 -99.9 1015.3 -9.9 -9.999  93.6 -99.99 -9.99
2019/12/06 06:30 EST   45.04  45.04    2  217    4  23.0 -99.9 1015.4 -9.9 -9.999  93.4 -99.99 -9.99
2019/12/06 06:36 EST   45.04  45.08    3  237    4  22.3 -99.9 1015.5 -9.9 -9.999  93.2 -99.99 -9.99
2019/12/06 06:42 EST   45.08  45.08    3  250    4  22.3 -99.9 1015.7 -9.9 -9.999  93.8 -99.99 -9.99
2019/12/06 06:48 EST   45.39  45.43    3  240    4  22.1 -99.9 1015.7 -9.9 -9.999  94.2 -99.99 -9.99
2019/12/06 06:54 EST   44.88  44.92    3  232    4  21.9 -99.9 1015.8 -9.9 -9.999  94.3 -99.99 -9.99
2019/12/06 07:00 EST   45.08  45.12    3  227    5  22.1 -99.9 1015.9 -9.9 -9.999  94.9 -99.99 -9.99
2019/12/06 07:06 EST   44.92  44.96    4  223    5  22.1 -99.9 1015.9 -9.9 -9.999  94.5 -99.99 -9.99
2019/12/06 07:12 EST   44.92  44.96    3  224    5  22.1 -99.9 1015.9 -9.9 -9.999  94.8 -99.99 -9.99
2019/12/06 07:18 EST   44.96  45.00    4  250    5  22.1 -99.9 1016.0 -9.9 -9.999  94.2 -99.99 -9.99
2019/12/06 07:24 EST   45.24  45.28    4  252    5  22.3 -99.9 1016.1 -9.9 -9.999  93.9 -99.99 -9.99
2019/12/06 07:30 EST   44.96  44.96    5  260    6  22.5 -99.9 1016.3 -9.9 -9.999  93.7 -99.99 -9.99
2019/12/06 07:36 EST   44.80  44.80    4  249    6  22.3 -99.9 1016.2 -9.9 -9.999  94.9 -99.99 -9.99
2019/12/06 07:42 EST   44.49  44.53    3  241    4  22.5 -99.9 1016.2 -9.9 -9.999  95.3 -99.99 -9.99
2019/12/06 07:48 EST   44.49  44.53    3  253    4  22.5 -99.9 1016.2 -9.9 -9.999  94.9 -99.99 -9.99
2019/12/06 07:54 EST   44.45  44.49    3  204    4  22.5 -99.9 1016.1 -9.9 -9.999  95.1 -99.99 -9.99
2019/12/06 08:00 EST   44.80  44.84    4  197    7  22.6 -99.9 1016.1 -9.9 -9.999  95.0 -99.99 -9.99
2019/12/06 08:06 EST   44.57  44.61    3  211    5  22.6 -99.9 1016.1 -9.9 -9.999  94.7 -99.99 -9.99
2019/12/06 08:12 EST   44.21  44.25    3  202    5  22.6 -99.9 1016.1 -9.9 -9.999  94.0 -99.99 -9.99
2019/12/06 08:18 EST   43.90  43.94    4  200    6  22.8 -99.9 1016.1 -9.9 -9.999  93.8 -99.99 -9.99
2019/12/06 08:24 EST   43.66  43.66    5  211    6  23.0 -99.9 1016.0 -9.9 -9.999  94.3 -99.99 -9.99
2019/12/06 08:30 EST   43.39  43.43    4  213    6  23.0 -99.9 1016.2 -9.9 -9.999  94.6 -99.99 -9.99
2019/12/06 08:36 EST   43.66  43.70    2  295    3  23.2 -99.9 1016.3 -9.9 -9.999  93.8 -99.99 -9.99
2019/12/06 08:42 EST   43.50  43.54    3  249    4  23.2 -99.9 1016.4 -9.9 -9.999  94.4 -99.99 -9.99
2019/12/06 08:48 EST   43.39  43.43    5  253    7  24.1 -99.9 1016.4 -9.9 -9.999  94.7 -99.99 -9.99
2019/12/06 08:54 EST   43.31  43.35    2  283    5  24.1 -99.9 1016.4 -9.9 -9.999  95.7 -99.99 -9.99
2019/12/06 09:00 EST   43.19  43.23    2  322    3  24.6 -99.9 1016.5 -9.9 -9.999  94.8 -99.99 -9.99
2019/12/06 09:06 EST   43.11  43.15    4  360    6  26.1 -99.9 1016.6 -9.9 -9.999  95.8 -99.99 -9.99
2019/12/06 09:12 EST   43.23  43.27    6  344   11  26.4 -99.9 1016.6 -9.9 -9.999  90.6 -99.99 -9.99
2019/12/06 09:18 EST   43.31  43.31   14  311   19  28.9 -99.9 1016.7 -9.9 -9.999  79.9 -99.99 -9.99
2019/12/06 09:24 EST   43.31  43.35   17  298   21  28.8 -99.9 1016.8 -9.9 -9.999  73.3 -99.99 -9.99
2019/12/06 09:30 EST   43.07  43.07   15  304   24  28.8 -99.9 1016.9 -9.9 -9.999  71.5 -99.99 -9.99
2019/12/06 09:36 EST   42.80  42.83   16  300   22  28.6 -99.9 1017.0 -9.9 -9.999  69.3 -99.99 -9.99
2019/12/06 09:42 EST   42.48  42.52   16  298   20  28.4 -99.9 1017.1 -9.9 -9.999  68.8 -99.99 -9.99
2019/12/06 09:48 EST   42.28  42.32   20  302   24  28.4 -99.9 1017.2 -9.9 -9.999  72.5 -99.99 -9.99
2019/12/06 09:54 EST   42.17  42.20   19  292   26  28.2 -99.9 1017.2 -9.9 -9.999  72.5 -99.99 -9.99
2019/12/06 10:00 EST   41.42  41.42   17  304   28  28.4 -99.9 1017.3 -9.9 -9.999  69.3 -99.99 -9.99
2019/12/06 10:06 EST   41.38  41.42   18  304   26  28.4 -99.9 1017.4 -9.9 -9.999  68.6 -99.99 -9.99
2019/12/06 10:12 EST   41.30  41.34   17  301   23  28.2 -99.9 1017.5 -9.9 -9.999  67.7 -99.99 -9.99
2019/12/06 10:18 EST   41.06  41.10   21  311   27  28.2 -99.9 1017.5 -9.9 -9.999  73.8 -99.99 -9.99
2019/12/06 10:24 EST   40.98  41.02   18  311   28  28.2 -99.9 1017.7 -9.9 -9.999  72.5 -99.99 -9.99
2019/12/06 10:30 EST   40.79  40.83   15  301   26  27.9 -99.9 1017.8 -9.9 -9.999  71.6 -99.99 -9.99
2019/12/06 10:36 EST   40.87  40.91   17  315   24  28.2 -99.9 1017.8 -9.9 -9.999  74.4 -99.99 -9.99
2019/12/06 10:42 EST   40.35  40.39   19  308   30  27.9 -99.9 1017.9 -9.9 -9.999  72.5 -99.99 -9.99
2019/12/06 10:48 EST   40.35  40.39   20  316   28  27.5 -99.9 1018.0 -9.9 -9.999  73.4 -99.99 -9.99
2019/12/06 10:54 EST   40.39  40.43   19  324   25  27.3 -99.9 1018.1 -9.9 -9.999  76.9 -99.99 -9.99
2019/12/06 11:00 EST   40.43  40.47   19  331   26  27.3 -99.9 1018.2 -9.9 -9.999  77.2 -99.99 -9.99
2019/12/06 11:06 EST   40.43  40.47   17  329   24  27.3 -99.9 1018.3 -9.9 -9.999  77.6 -99.99 -9.99
2019/12/06 11:12 EST   40.31  40.31   18  319   23  27.0 -99.9 1018.4 -9.9 -9.999  76.9 -99.99 -9.99
2019/12/06 11:18 EST   40.35  40.39   19  315   25  27.0 -99.9 1018.5 -9.9 -9.999  71.1 -99.99 -9.99
2019/12/06 11:24 EST   40.24  40.28   16  317   26  27.1 -99.9 1018.6 -9.9 -9.999  68.0 -99.99 -9.99
2019/12/06 11:30 EST   40.08  40.08   17  320   28  27.1 -99.9 1018.6 -9.9 -9.999  67.2 -99.99 -9.99
2019/12/06 11:36 EST   39.96  40.00   17  324   24  27.3 -99.9 1018.8 -9.9 -9.999  66.2 -99.99 -9.99
2019/12/06 11:42 EST   39.76  39.80   21  316   28  26.6 -99.9 1018.9 -9.9 -9.999  66.6 -99.99 -9.99
2019/12/06 11:48 EST   39.65  39.69   19  318   26  26.6 -99.9 1019.0 -9.9 -9.999  68.1 -99.99 -9.99
2019/12/06 11:54 EST   39.53  39.53   17  316   26  26.6 -99.9 1019.0 -9.9 -9.999  65.5 -99.99 -9.99
2019/12/06 12:00 EST   39.41  39.45   21  314   26  26.1 -99.9 1019.1 -9.9 -9.999  65.7 -99.99 -9.99
2019/12/06 12:06 EST   39.41  39.41   23  323   27  26.1 -99.9 1019.1 -9.9 -9.999  65.3 -99.99 -9.99
2019/12/06 12:12 EST   39.33  39.37   21  315   28  25.9 -99.9 1019.1 -9.9 -9.999  64.7 -99.99 -9.99
2019/12/06 12:18 EST   39.37  39.41   23  327   26  26.1 -99.9 1019.1 -9.9 -9.999  64.9 -99.99 -9.99
2019/12/06 12:24 EST   39.37  39.37   19  325   24  25.9 -99.9 1019.1 -9.9 -9.999  63.5 -99.99 -9.99
2019/12/06 12:30 EST   39.33  39.37   17  329   24  26.1 -99.9 1019.1 -9.9 -9.999  65.4 -99.99 -9.99
2019/12/06 12:36 EST   39.37  39.37   15  324   19  26.6 -99.9 1019.1 -9.9 -9.999  63.0 -99.99 -9.99
2019/12/06 12:42 EST   39.37  39.37   17  321   20  26.1 -99.9 1019.1 -9.9 -9.999  60.5 -99.99 -9.99
2019/12/06 12:48 EST   39.49  39.53   17  335   25  26.6 -99.9 1019.2 -9.9 -9.999  63.3 -99.99 -9.99
2019/12/06 12:54 EST   39.57  39.57   18  334   23  26.2 -99.9 1019.2 -9.9 -9.999  62.5 -99.99 -9.99
2019/12/06 13:00 EST   39.57  39.61   17  321   24  25.9 -99.9 1019.3 -9.9 -9.999  62.2 -99.99 -9.99
2019/12/06 13:06 EST   39.61  39.65   18  332   21  26.4 -99.9 1019.3 -9.9 -9.999  62.8 -99.99 -9.99
2019/12/06 13:12 EST   39.57  39.61   18  334   24  26.2 -99.9 1019.3 -9.9 -9.999  62.4 -99.99 -9.99
2019/12/06 13:18 EST   39.69  39.72   20  333   24  26.1 -99.9 1019.4 -9.9 -9.999  62.2 -99.99 -9.99
2019/12/06 13:24 EST   39.69  39.72   18  331   25  25.9 -99.9 1019.5 -9.9 -9.999  63.4 -99.99 -9.99
2019/12/06 13:30 EST   39.65  39.69   16  335   19  26.1 -99.9 1019.6 -9.9 -9.999  65.5 -99.99 -9.99
2019/12/06 13:36 EST   39.57  39.61   15  313   23  25.7 -99.9 1019.6 -9.9 -9.999  64.8 -99.99 -9.99
2019/12/06 13:42 EST   39.49  39.53   16  319   24  25.7 -99.9 1019.6 -9.9 -9.999  62.7 -99.99 -9.99
2019/12/06 13:48 EST   39.41  39.41   18  330   24  25.7 -99.9 1019.7 -9.9 -9.999  62.9 -99.99 -9.99
2019/12/06 13:54 EST   39.29  39.33   13  319   21  25.9 -99.9 1019.7 -9.9 -9.999  64.5 -99.99 -9.99
2019/12/06 14:00 EST   39.17  39.17   18  324   22  25.5 -99.9 1019.7 -9.9 -9.999  65.4 -99.99 -9.99
2019/12/06 14:06 EST  -99.99 -99.99 -999 -999 -999 -99.9 -99.9 -999.9 -9.9 -9.999 -99.9 -99.99 -9.99
2019/12/06 14:12 EST  -99.99 -99.99 -999 -999 -999 -99.9 -99.9 -999.9 -9.9 -9.999 -99.9 -99.99 -9.99
2019/12/06 14:18 EST  -99.99 -99.99 -999 -999 -999 -99.9 -99.9 -999.9 -9.9 -9.999 -99.9 -99.99 -9.99
2019/12/06 14:24 EST  -99.99 -99.99 -999 -999 -999 -99.9 -99.9 -999.9 -9.9 -9.999 -99.9 -99.99 -9.99
2019/12/06 14:30 EST  -99.99 -99.99 -999 -999 -999 -99.9 -99.9 -999.9 -9.9 -9.999 -99.9 -99.99 -9.99
2019/12/06 14:36 EST  -99.99 -99.99 -999 -999 -999 -99.9 -99.9 -999.9 -9.9 -9.999 -99.9 -99.99 -9.99
2019/12/06 14:42 EST  -99.99 -99.99 -999 -999 -999 -99.9 -99.9 -999.9 -9.9 -9.999 -99.9 -99.99 -9.99
2019/12/06 14:48 EST  -99.99 -99.99 -999 -999 -999 -99.9 -99.9 -999.9 -9.9 -9.999 -99.9 -99.99 -9.99
2019/12/06 14:54 EST  -99.99 -99.99 -999 -999 -999 -99.9 -99.9 -999.9 -9.9 -9.999 -99.9 -99.99 -9.99
2019/12/06 15:00 EST  -99.99 -99.99 -999 -999 -999 -99.9 -99.9 -999.9 -9.9 -9.999 -99.9 -99.99 -9.99
2019/12/06 15:06 EST  -99.99 -99.99 -999 -999 -999 -99.9 -99.9 -999.9 -9.9 -9.999 -99.9 -99.99 -9.99
2019/12/06 15:12 EST  -99.99 -99.99 -999 -999 -999 -99.9 -99.9 -999.9 -9.9 -9.999 -99.9 -99.99 -9.99
2019/12/06 15:18 EST  -99.99 -99.99 -999 -999 -999 -99.9 -99.9 -999.9 -9.9 -9.999 -99.9 -99.99 -9.99
2019/12/06 15:24 EST  -99.99 -99.99 -999 -999 -999 -99.9 -99.9 -999.9 -9.9 -9.999 -99.9 -99.99 -9.99
2019/12/06 15:30 EST  -99.99 -99.99 -999 -999 -999 -99.9 -99.9 -999.9 -9.9 -9.999 -99.9 -99.99 -9.99
2019/12/06 15:36 EST  -99.99 -99.99 -999 -999 -999 -99.9 -99.9 -999.9 -9.9 -9.999 -99.9 -99.99 -9.99
2019/12/06 15:42 EST  -99.99 -99.99 -999 -999 -999 -99.9 -99.9 -999.9 -9.9 -9.999 -99.9 -99.99 -9.99
2019/12/06 15:48 EST  -99.99 -99.99 -999 -999 -999 -99.9 -99.9 -999.9 -9.9 -9.999 -99.9 -99.99 -9.99
2019/12/06 15:54 EST  -99.99 -99.99 -999 -999 -999 -99.9 -99.9 -999.9 -9.9 -9.999 -99.9 -99.99 -9.99
2019/12/06 16:00 EST  -99.99 -99.99 -999 -999 -999 -99.9 -99.9 -999.9 -9.9 -9.999 -99.9 -99.99 -9.99
2019/12/06 16:06 EST  -99.99 -99.99 -999 -999 -999 -99.9 -99.9 -999.9 -9.9 -9.999 -99.9 -99.99 -9.99
2019/12/06 16:12 EST  -99.99 -99.99 -999 -999 -999 -99.9 -99.9 -999.9 -9.9 -9.999 -99.9 -99.99 -9.99
2019/12/06 16:18 EST  -99.99 -99.99 -999 -999 -999 -99.9 -99.9 -999.9 -9.9 -9.999 -99.9 -99.99 -9.99
2019/12/06 16:24 EST  -99.99 -99.99 -999 -999 -999 -99.9 -99.9 -999.9 -9.9 -9.999 -99.9 -99.99 -9.99
2019/12/06 16:30 EST  -99.99 -99.99 -999 -999 -999 -99.9 -99.9 -999.9 -9.9 -9.999 -99.9 -99.99 -9.99
2019/12/06 16:36 EST  -99.99 -99.99 -999 -999 -999 -99.9 -99.9 -999.9 -9.9 -9.999 -99.9 -99.99 -9.99
2019/12/06 16:42 EST  -99.99 -99.99 -999 -999 -999 -99.9 -99.9 -999.9 -9.9 -9.999 -99.9 -99.99 -9.99
2019/12/06 16:48 EST  -99.99 -99.99 -999 -999 -999 -99.9 -99.9 -999.9 -9.9 -9.999 -99.9 -99.99 -9.99
2019/12/06 16:54 EST  -99.99 -99.99 -999 -999 -999 -99.9 -99.9 -999.9 -9.9 -9.999 -99.9 -99.99 -9.99
2019/12/06 17:00 EST  -99.99 -99.99 -999 -999 -999 -99.9 -99.9 -999.9 -9.9 -9.999 -99.9 -99.99 -9.99
2019/12/06 17:06 EST  -99.99 -99.99 -999 -999 -999 -99.9 -99.9 -999.9 -9.9 -9.999 -99.9 -99.99 -9.99
2019/12/06 17:12 EST  -99.99 -99.99 -999 -999 -999 -99.9 -99.9 -999.9 -9.9 -9.999 -99.9 -99.99 -9.99
2019/12/06 17:18 EST  -99.99 -99.99 -999 -999 -999 -99.9 -99.9 -999.9 -9.9 -9.999 -99.9 -99.99 -9.99
2019/12/06 17:24 EST  -99.99 -99.99 -999 -999 -999 -99.9 -99.9 -999.9 -9.9 -9.999 -99.9 -99.99 -9.99
2019/12/06 17:30 EST  -99.99 -99.99 -999 -999 -999 -99.9 -99.9 -999.9 -9.9 -9.999 -99.9 -99.99 -9.99
2019/12/06 17:36 EST  -99.99 -99.99 -999 -999 -999 -99.9 -99.9 -999.9 -9.9 -9.999 -99.9 -99.99 -9.99
2019/12/06 17:42 EST  -99.99 -99.99 -999 -999 -999 -99.9 -99.9 -999.9 -9.9 -9.999 -99.9 -99.99 -9.99
2019/12/06 17:48 EST  -99.99 -99.99 -999 -999 -999 -99.9 -99.9 -999.9 -9.9 -9.999 -99.9 -99.99 -9.99
2019/12/06 17:54 EST  -99.99 -99.99 -999 -999 -999 -99.9 -99.9 -999.9 -9.9 -9.999 -99.9 -99.99 -9.99
2019/12/06 18:00 EST  -99.99 -99.99 -999 -999 -999 -99.9 -99.9 -999.9 -9.9 -9.999 -99.9 -99.99 -9.99
2019/12/06 18:06 EST  -99.99 -99.99 -999 -999 -999 -99.9 -99.9 -999.9 -9.9 -9.999 -99.9 -99.99 -9.99
2019/12/06 18:12 EST  -99.99 -99.99 -999 -999 -999 -99.9 -99.9 -999.9 -9.9 -9.999 -99.9 -99.99 -9.99
2019/12/06 18:18 EST  -99.99 -99.99 -999 -999 -999 -99.9 -99.9 -999.9 -9.9 -9.999 -99.9 -99.99 -9.99
2019/12/06 18:24 EST  -99.99 -99.99 -999 -999 -999 -99.9 -99.9 -999.9 -9.9 -9.999 -99.9 -99.99 -9.99
2019/12/06 18:30 EST  -99.99 -99.99 -999 -999 -999 -99.9 -99.9 -999.9 -9.9 -9.999 -99.9 -99.99 -9.99
2019/12/06 18:36 EST  -99.99 -99.99 -999 -999 -999 -99.9 -99.9 -999.9 -9.9 -9.999 -99.9 -99.99 -9.99
2019/12/06 18:42 EST  -99.99 -99.99 -999 -999 -999 -99.9 -99.9 -999.9 -9.9 -9.999 -99.9 -99.99 -9.99
2019/12/06 18:48 EST  -99.99 -99.99 -999 -999 -999 -99.9 -99.9 -999.9 -9.9 -9.999 -99.9 -99.99 -9.99
2019/12/06 18:54 EST  -99.99 -99.99 -999 -999 -999 -99.9 -99.9 -999.9 -9.9 -9.999 -99.9 -99.99 -9.99
2019/12/06 19:00 EST  -99.99 -99.99 -999 -999 -999 -99.9 -99.9 -999.9 -9.9 -9.999 -99.9 -99.99 -9.99
2019/12/06 19:06 EST  -99.99 -99.99 -999 -999 -999 -99.9 -99.9 -999.9 -9.9 -9.999 -99.9 -99.99 -9.99
2019/12/06 19:12 EST  -99.99 -99.99 -999 -999 -999 -99.9 -99.9 -999.9 -9.9 -9.999 -99.9 -99.99 -9.99
2019/12/06 19:18 EST  -99.99 -99.99 -999 -999 -999 -99.9 -99.9 -999.9 -9.9 -9.999 -99.9 -99.99 -9.99
2019/12/06 19:24 EST  -99.99 -99.99 -999 -999 -999 -99.9 -99.9 -999.9 -9.9 -9.999 -99.9 -99.99 -9.99
2019/12/06 19:30 EST  -99.99 -99.99 -999 -999 -999 -99.9 -99.9 -999.9 -9.9 -9.999 -99.9 -99.99 -9.99
2019/12/06 19:36 EST  -99.99 -99.99 -999 -999 -999 -99.9 -99.9 -999.9 -9.9 -9.999 -99.9 -99.99 -9.99
2019/12/06 19:42 EST  -99.99 -99.99 -999 -999 -999 -99.9 -99.9 -999.9 -9.9 -9.999 -99.9 -99.99 -9.99
2019/12/06 19:48 EST  -99.99 -99.99 -999 -999 -999 -99.9 -99.9 -999.9 -9.9 -9.999 -99.9 -99.99 -9.99
2019/12/06 19:54 EST  -99.99 -99.99 -999 -999 -999 -99.9 -99.9 -999.9 -9.9 -9.999 -99.9 -99.99 -9.99
2019/12/06 20:00 EST  -99.99 -99.99 -999 -999 -999 -99.9 -99.9 -999.9 -9.9 -9.999 -99.9 -99.99 -9.99
2019/12/06 20:06 EST  -99.99 -99.99 -999 -999 -999 -99.9 -99.9 -999.9 -9.9 -9.999 -99.9 -99.99 -9.99
2019/12/06 20:12 EST  -99.99 -99.99 -999 -999 -999 -99.9 -99.9 -999.9 -9.9 -9.999 -99.9 -99.99 -9.99